Time;durP1;ratioP1;P1;durP2;ratioP2;P2;SDS_P1;SDS_P2;PMS_P1;PMS_P2;Temp;Humidity;BMP_temperature;BMP_pressure;BME280_temperature;BME280_humidity;BME280_pressure;Samples;Min_cycle;Max_cycle;Signal;HPM_P1;HPM_P2
2022/06/13 00:01:33;;;;;;;1.50;1.40;;;22.10;59.30;;;;;;5083615;28;20051;-56
2022/06/13 00:04:00;;;;;;;1.35;1.25;;;22.10;59.10;;;;;;5070614;28;20025;-56
2022/06/13 00:06:26;;;;;;;1.38;1.27;;;22.00;59.00;;;;;;5062560;28;20064;-56
2022/06/13 00:08:52;;;;;;;1.38;1.27;;;22.00;59.20;;;;;;5081830;28;20054;-52
2022/06/13 00:11:21;;;;;;;1.38;1.27;;;22.00;59.20;;;;;;5082801;28;20040;-56
2022/06/13 00:13:48;;;;;;;1.50;1.40;;;22.00;59.10;;;;;;5070458;28;20037;-55
2022/06/13 00:16:14;;;;;;;1.45;1.20;;;22.00;59.20;;;;;;5063271;28;20032;-54
2022/06/13 00:18:47;;;;;;;1.50;1.40;;;21.90;59.60;;;;;;5063342;28;20029;-54
2022/06/13 00:21:15;;;;;;;1.42;1.33;;;21.90;59.10;;;;;;5062870;28;20481;-54
2022/06/13 00:23:41;;;;;;;1.20;1.10;;;21.90;59.30;;;;;;5066518;28;20064;-52
2022/06/13 00:26:07;;;;;;;1.58;1.40;;;21.90;59.40;;;;;;5083021;28;20017;-54
2022/06/13 00:28:33;;;;;;;1.60;1.50;;;21.90;59.70;;;;;;5083126;28;20032;-55
2022/06/13 00:30:59;;;;;;;1.50;1.40;;;21.80;59.20;;;;;;5082690;28;20021;-57
2022/06/13 00:33:25;;;;;;;1.38;1.27;;;21.80;59.40;;;;;;5082759;28;20040;-56
2022/06/13 00:35:52;;;;;;;2.00;1.40;;;21.80;59.10;;;;;;5083022;28;20028;-56
2022/06/13 00:38:18;;;;;;;1.45;1.35;;;21.80;59.40;;;;;;5083104;28;20064;-55
2022/06/13 00:40:44;;;;;;;1.50;1.35;;;21.80;59.10;;;;;;5082645;28;20036;-52
2022/06/13 00:43:13;;;;;;;1.55;1.45;;;21.70;59.10;;;;;;5066275;28;20029;-56
2022/06/13 00:45:39;;;;;;;1.63;1.50;;;21.70;59.30;;;;;;5063005;28;20031;-54
2022/06/13 00:48:06;;;;;;;1.50;1.40;;;21.70;59.20;;;;;;5062846;28;20071;-53
2022/06/13 00:50:35;;;;;;;1.50;1.40;;;21.70;59.30;;;;;;5083474;28;20047;-55
2022/06/13 00:53:21;;;;;;;1.30;1.20;;;21.60;59.30;;;;;;5064548;28;20108;-57
2022/06/13 00:56:05;;;;;;;1.38;1.27;;;21.60;59.20;;;;;;5062461;28;20039;-55
2022/06/13 00:58:40;;;;;;;2.15;1.40;;;21.60;59.20;;;;;;5046946;28;20025;-53
2022/06/13 01:01:06;;;;;;;1.40;1.30;;;21.60;59.40;;;;;;5044432;28;20025;-56
2022/06/13 01:03:33;;;;;;;1.73;1.63;;;21.60;62.90;;;;;;5088468;28;20021;-56
2022/06/13 01:06:00;;;;;;;1.70;1.60;;;21.60;64.60;;;;;;5064678;28;20029;-54
2022/06/13 01:08:26;;;;;;;;;;;21.60;65.00;;;;;;5065095;28;20078;-54
2022/06/13 01:14:00;;;;;;;1.33;1.23;;;21.60;63.40;;;;;;5074072;28;20058;-56
2022/06/13 01:16:41;;;;;;;1.60;1.50;;;21.60;64.10;;;;;;5082286;28;20025;-57
2022/06/13 01:19:19;;;;;;;1.48;1.38;;;21.60;61.00;;;;;;5068131;28;20052;-55
2022/06/13 01:22:20;;;;;;;1.58;1.48;;;21.50;65.00;;;;;;5086326;28;20028;-55
2022/06/13 01:25:24;;;;;;;1.50;1.30;;;21.50;65.30;;;;;;5071226;28;20047;-56
2022/06/13 01:28:18;;;;;;;1.67;1.58;;;21.50;64.90;;;;;;5086536;28;20032;-56
2022/06/13 01:31:09;;;;;;;1.40;1.30;;;21.50;63.60;;;;;;5048334;28;20107;-57
2022/06/13 01:33:57;;;;;;;2.00;1.63;;;21.60;63.00;;;;;;5075922;28;20093;-55
2022/06/13 01:37:00;;;;;;;1.27;1.17;;;21.50;60.60;;;;;;5068887;28;20029;-56
2022/06/13 01:39:53;;;;;;;1.88;1.50;;;21.50;63.50;;;;;;5086316;28;20021;-56
2022/06/13 01:42:47;;;;;;;2.17;1.60;;;21.50;64.60;;;;;;5075886;28;20037;-56
2022/06/13 01:45:31;;;;;;;1.52;1.42;;;21.50;64.90;;;;;;5048165;28;20088;-57
2022/06/13 01:48:03;;;;;;;1.60;1.50;;;21.50;63.80;;;;;;5048147;28;20053;-57
2022/06/13 01:50:30;;;;;;;1.60;1.50;;;21.50;62.30;;;;;;5057687;28;20050;-57
2022/06/13 01:53:07;;;;;;;1.58;1.48;;;21.50;62.50;;;;;;5106133;28;20028;-57
2022/06/13 01:55:44;;;;;;;1.50;1.40;;;21.50;61.00;;;;;;5062501;28;20074;-55
2022/06/13 01:58:41;;;;;;;1.63;1.52;;;21.50;63.60;;;;;;5077549;28;20129;-54
2022/06/13 02:01:26;;;;;;;1.83;1.70;;;21.50;64.40;;;;;;5059989;28;20024;-56
2022/06/13 02:04:04;;;;;;;1.60;1.50;;;21.50;64.50;;;;;;5059715;28;20032;-56
2022/06/13 02:06:37;;;;;;;1.80;1.70;;;21.50;64.40;;;;;;5076017;28;20027;-57
2022/06/13 02:09:26;;;;;;;2.60;1.90;;;21.50;64.40;;;;;;5060731;28;20115;-57
2022/06/13 02:11:53;;;;;;;1.92;1.70;;;21.50;62.10;;;;;;5078187;28;20029;-57
2022/06/13 02:14:28;;;;;;;1.60;1.50;;;21.50;61.10;;;;;;5085593;28;20063;-57
2022/06/13 02:17:02;;;;;;;1.80;1.70;;;21.50;63.40;;;;;;5067413;28;20032;-55
2022/06/13 02:19:49;;;;;;;1.73;1.63;;;21.50;63.90;;;;;;5068333;28;20029;-57
2022/06/13 02:22:18;;;;;;;1.67;1.40;;;21.60;64.00;;;;;;5085033;28;20028;-54
2022/06/13 02:24:56;;;;;;;1.83;1.67;;;21.60;63.90;;;;;;5055313;28;20468;-55
2022/06/13 02:27:22;;;;;;;1.55;1.45;;;21.60;63.80;;;;;;5056597;28;20062;-56
2022/06/13 02:29:54;;;;;;;2.20;1.50;;;21.60;63.80;;;;;;5084751;28;20025;-57
2022/06/13 02:32:23;;;;;;;1.60;1.50;;;21.60;63.80;;;;;;5050987;28;20079;-55
2022/06/13 02:34:57;;;;;;;1.52;1.42;;;21.60;63.70;;;;;;5031161;28;20139;-56
2022/06/13 02:37:33;;;;;;;1.95;1.60;;;21.60;63.70;;;;;;5047376;28;20116;-57
2022/06/13 02:40:26;;;;;;;1.60;1.50;;;21.60;63.50;;;;;;5047720;28;20020;-57
2022/06/13 02:43:06;;;;;;;1.65;1.55;;;21.70;63.50;;;;;;5041176;28;20035;-58
2022/06/13 02:45:53;;;;;;;1.60;1.50;;;21.60;63.40;;;;;;5048270;28;20048;-57
2022/06/13 02:48:21;;;;;;;1.60;1.50;;;21.70;63.30;;;;;;5065050;28;20032;-58
2022/06/13 02:51:20;;;;;;;1.73;1.48;;;21.70;63.20;;;;;;5046887;28;20031;-58
2022/06/13 02:53:46;;;;;;;;;;;21.70;63.10;;;;;;5069068;28;20033;-57
2022/06/13 02:57:23;;;;;;;1.48;1.38;;;21.70;63.00;;;;;;5086590;28;19915;-57
2022/06/13 02:59:36;;;;;;;2.67;1.67;;;21.80;63.10;;;;;;5063437;28;20047;-56
2022/06/13 03:02:02;;;;;;;1.60;1.50;;;21.80;63.00;;;;;;5064486;28;20032;-58
2022/06/13 03:04:38;;;;;;;2.15;1.30;;;21.80;62.80;;;;;;5084242;28;20033;-57
2022/06/13 03:07:28;;;;;;;1.83;1.50;;;21.80;62.70;;;;;;5050292;28;20036;-57
2022/06/13 03:09:58;;;;;;;1.50;1.40;;;21.90;62.70;;;;;;5068968;28;20082;-59
2022/06/13 03:12:36;;;;;;;2.00;1.67;;;21.80;62.60;;;;;;5077186;28;20135;-57
2022/06/13 03:15:24;;;;;;;2.00;1.80;;;21.90;62.50;;;;;;5060379;28;20036;-57
2022/06/13 03:18:12;;;;;;;1.42;1.30;;;21.90;62.40;;;;;;5058332;28;20029;-57
2022/06/13 03:20:49;;;;;;;1.30;1.20;;;21.90;62.30;;;;;;5042202;28;20246;-58
2022/06/13 03:23:24;;;;;;;1.83;1.55;;;22.00;62.30;;;;;;5058935;28;20281;-44
2022/06/13 03:25:56;;;;;;;1.55;1.45;;;22.00;62.20;;;;;;5058608;28;20036;-48
2022/06/13 03:28:23;;;;;;;2.00;1.90;;;22.00;62.40;;;;;;5041919;28;20115;-45
2022/06/13 03:31:00;;;;;;;2.75;2.25;;;22.00;62.70;;;;;;5057504;28;20114;-48
2022/06/13 03:33:42;;;;;;;;;;;22.00;63.90;;;;;;5077307;28;20787;-47
2022/06/13 03:36:17;;;;;;;5.03;2.20;;;22.10;65.00;;;;;;5072487;28;19948;-47
2022/06/13 03:38:59;;;;;;;4.78;2.40;;;22.10;64.30;;;;;;5075510;28;20051;-48
2022/06/13 03:41:27;;;;;;;3.00;2.50;;;22.00;64.20;;;;;;5059246;28;20063;-52
2022/06/13 03:43:57;;;;;;;3.80;2.60;;;22.10;64.20;;;;;;5059623;28;20076;-45
2022/06/13 03:46:38;;;;;;;6.25;2.65;;;22.00;62.60;;;;;;5079485;28;20028;-44
2022/06/13 03:49:14;;;;;;;3.85;2.30;;;22.00;61.90;;;;;;5078820;28;20020;-46
2022/06/13 03:51:46;;;;;;;3.00;2.15;;;22.00;60.50;;;;;;5050544;28;20032;-50
2022/06/13 03:54:34;;;;;;;3.95;2.17;;;22.00;59.50;;;;;;5045584;28;20032;-50
2022/06/13 03:57:06;;;;;;;4.82;2.20;;;21.90;59.20;;;;;;5080080;28;20115;-52
2022/06/13 03:59:43;;;;;;;2.97;2.25;;;22.00;59.80;;;;;;5073293;28;20036;-49
2022/06/13 04:02:16;;;;;;;2.58;2.03;;;21.90;59.30;;;;;;5078210;28;20025;-46
2022/06/13 04:04:48;;;;;;;2.00;1.80;;;21.80;58.90;;;;;;5059571;28;20033;-48
2022/06/13 04:07:15;;;;;;;2.65;2.33;;;21.80;58.90;;;;;;5076288;28;20021;-46
2022/06/13 04:09:49;;;;;;;2.85;2.50;;;21.80;59.10;;;;;;5073018;28;20024;-50
2022/06/13 04:12:54;;;;;;;3.72;2.05;;;21.80;59.30;;;;;;5059458;28;20779;-46
2022/06/13 04:15:20;;;;;;;4.95;2.15;;;21.80;59.50;;;;;;5048979;28;20118;-49
2022/06/13 04:17:59;;;;;;;4.30;2.58;;;21.70;61.10;;;;;;5082327;28;20031;-52
2022/06/13 04:20:34;;;;;;;2.60;2.40;;;21.70;61.40;;;;;;5048435;28;20088;-48
2022/06/13 04:23:14;;;;;;;2.65;2.35;;;21.70;61.70;;;;;;5047763;28;20768;-49
2022/06/13 04:25:52;;;;;;;5.68;2.80;;;21.70;61.90;;;;;;5062207;28;20044;-47
2022/06/13 04:28:52;;;;;;;2.63;2.20;;;21.70;62.20;;;;;;5048814;28;20293;-49
2022/06/13 04:31:18;;;;;;;3.25;2.67;;;21.70;61.90;;;;;;5081799;28;20025;-52
2022/06/13 04:34:17;;;;;;;5.27;2.83;;;21.60;61.90;;;;;;5080866;28;20031;-52
2022/06/13 04:36:44;;;;;;;3.50;2.85;;;21.60;62.00;;;;;;5055137;28;20040;-52
2022/06/13 04:39:10;;;;;;;3.10;2.90;;;21.60;61.90;;;;;;5064267;28;20029;-53
2022/06/13 04:41:39;;;;;;;2.95;2.53;;;21.60;61.60;;;;;;5053906;28;20290;-52
2022/06/13 04:44:05;;;;;;;3.30;3.00;;;21.60;61.80;;;;;;5085237;28;20032;-52
2022/06/13 04:46:31;;;;;;;3.65;2.60;;;21.60;61.70;;;;;;5083365;28;20039;-50
2022/06/13 04:48:59;;;;;;;3.17;2.87;;;21.50;61.60;;;;;;5063829;28;20078;-53
2022/06/13 04:51:27;;;;;;;3.20;2.90;;;21.50;61.60;;;;;;5077219;28;20052;-56
2022/06/13 04:54:12;;;;;;;3.15;2.85;;;21.50;61.40;;;;;;5047105;28;20032;-49
2022/06/13 04:56:38;;;;;;;4.15;2.40;;;21.50;61.70;;;;;;5081551;28;20586;-52
2022/06/13 04:59:04;;;;;;;3.80;2.35;;;21.40;61.40;;;;;;5066303;28;20115;-51
2022/06/13 05:01:35;;;;;;;2.65;2.45;;;21.40;61.50;;;;;;5046602;28;20028;-53
2022/06/13 05:04:06;;;;;;;4.93;2.50;;;21.40;61.10;;;;;;5063508;28;20036;-51
2022/06/13 05:06:40;;;;;;;2.70;2.50;;;21.40;61.20;;;;;;5081330;28;20031;-51
2022/06/13 05:09:31;;;;;;;3.13;2.67;;;21.40;61.20;;;;;;5081793;28;20058;-49
2022/06/13 05:12:06;;;;;;;4.20;2.70;;;21.30;61.10;;;;;;5081031;28;20028;-48
2022/06/13 05:14:49;;;;;;;2.78;2.58;;;21.30;61.00;;;;;;5080969;28;20036;-55
2022/06/13 05:17:31;;;;;;;3.20;2.90;;;21.30;60.50;;;;;;5080484;28;20028;-54
2022/06/13 05:20:09;;;;;;;3.15;2.88;;;21.20;60.60;;;;;;5080403;28;20028;-55
2022/06/13 05:22:47;;;;;;;3.15;2.88;;;21.20;60.40;;;;;;5079764;28;20094;-50
2022/06/13 05:25:45;;;;;;;3.10;2.90;;;21.20;60.60;;;;;;5082718;28;20055;-53
2022/06/13 05:28:18;;;;;;;3.05;2.85;;;21.20;60.70;;;;;;5098538;28;20493;-52
2022/06/13 05:30:45;;;;;;;3.55;2.67;;;21.10;60.80;;;;;;5084124;28;20084;-52
2022/06/13 05:33:15;;;;;;;3.97;2.78;;;21.10;61.00;;;;;;5080969;28;20037;-52
2022/06/13 05:35:43;;;;;;;3.28;2.85;;;21.10;60.70;;;;;;5065479;28;20079;-49
2022/06/13 05:38:27;;;;;;;3.30;3.00;;;21.00;60.90;;;;;;5062143;28;20040;-50
2022/06/13 05:40:54;;;;;;;2.60;2.40;;;21.00;60.80;;;;;;5067504;28;20027;-48
2022/06/13 05:43:20;;;;;;;4.45;2.50;;;21.00;60.70;;;;;;5075060;28;20036;-48
2022/06/13 05:45:46;;;;;;;2.75;2.50;;;20.90;60.50;;;;;;5076235;28;20139;-55
2022/06/13 05:48:13;;;;;;;3.00;2.80;;;20.90;60.70;;;;;;5078929;28;20057;-53
2022/06/13 05:50:39;;;;;;;3.40;2.72;;;20.90;60.70;;;;;;5084481;28;20048;-54
2022/06/13 05:53:05;;;;;;;2.60;2.40;;;20.90;60.70;;;;;;5081943;28;20114;-54
2022/06/13 05:55:31;;;;;;;2.95;2.60;;;20.80;61.40;;;;;;5081703;28;20083;-53
2022/06/13 05:57:57;;;;;;;2.80;2.60;;;20.80;60.60;;;;;;5063952;28;20086;-49
2022/06/13 06:00:26;;;;;;;2.60;2.40;;;20.80;60.60;;;;;;5081792;28;20033;-49
2022/06/13 06:02:52;;;;;;;2.92;2.63;;;20.80;60.50;;;;;;5064200;28;20021;-53
2022/06/13 06:05:18;;;;;;;2.60;2.40;;;20.70;60.60;;;;;;5084551;28;20792;-53
2022/06/13 06:07:44;;;;;;;2.70;2.50;;;20.70;60.50;;;;;;5086327;28;20035;-49
2022/06/13 06:10:17;;;;;;;2.45;2.25;;;20.70;60.50;;;;;;5082359;28;20025;-54
2022/06/13 06:12:43;;;;;;;2.50;2.30;;;20.70;60.50;;;;;;5062430;28;20028;-51
2022/06/13 06:15:10;;;;;;;3.03;2.70;;;20.60;60.50;;;;;;5084022;28;20119;-52
2022/06/13 06:17:36;;;;;;;2.45;2.25;;;20.60;60.40;;;;;;5076770;28;20508;-50
2022/06/13 06:20:03;;;;;;;1.50;1.40;;;20.60;59.50;;;;;;5077209;28;20033;-47
2022/06/13 06:22:29;;;;;;;2.27;1.97;;;20.50;58.20;;;;;;5077934;28;20048;-51
2022/06/13 06:24:55;;;;;;;2.10;1.95;;;20.50;58.70;;;;;;5080664;28;21230;-51
2022/06/13 06:27:21;;;;;;;3.97;2.20;;;20.50;59.50;;;;;;5076279;28;20078;-51
2022/06/13 06:29:47;;;;;;;2.30;2.00;;;20.40;59.60;;;;;;5078522;28;20020;-53
2022/06/13 06:32:13;;;;;;;2.47;2.28;;;20.40;59.70;;;;;;5078385;28;20036;-53
2022/06/13 06:34:41;;;;;;;2.45;2.25;;;20.40;60.10;;;;;;5076785;28;20056;-55
2022/06/13 06:37:07;;;;;;;2.72;2.53;;;20.40;60.40;;;;;;5075958;28;20043;-49
2022/06/13 06:39:34;;;;;;;5.55;2.53;;;20.40;60.70;;;;;;5077445;28;20032;-53
2022/06/13 06:42:00;;;;;;;2.47;2.22;;;20.40;60.90;;;;;;5082100;28;20055;-52
2022/06/13 06:44:26;;;;;;;2.50;2.30;;;20.40;61.20;;;;;;5063758;28;20039;-51
2022/06/13 06:46:52;;;;;;;3.13;2.83;;;20.40;61.40;;;;;;5065393;28;20028;-52
2022/06/13 06:49:18;;;;;;;2.78;2.58;;;20.40;61.40;;;;;;5076462;28;20057;-50
2022/06/13 06:51:44;;;;;;;2.80;2.60;;;20.40;61.50;;;;;;5092264;28;20032;-51
2022/06/13 06:59:55;;;;;;;3.17;2.88;;;20.40;61.50;;;;;;5096092;28;20046;-52
2022/06/13 07:02:23;;;;;;;3.45;2.85;;;20.40;61.50;;;;;;5071592;28;20113;-50
2022/06/13 07:04:52;;;;;;;2.47;2.28;;;20.40;61.70;;;;;;5090236;28;20038;-49
2022/06/13 07:07:18;;;;;;;2.58;2.38;;;20.50;61.90;;;;;;5092129;28;20046;-53
2022/06/13 07:09:44;;;;;;;3.03;2.70;;;20.50;61.90;;;;;;5084169;28;20115;-52
2022/06/13 07:12:11;;;;;;;2.70;2.50;;;20.50;61.90;;;;;;5079458;28;20024;-50
2022/06/13 07:14:37;;;;;;;2.73;2.47;;;20.50;62.20;;;;;;5066658;28;20041;-53
2022/06/13 07:17:04;;;;;;;2.80;2.60;;;20.50;62.30;;;;;;5070928;28;20040;-51
2022/06/13 07:19:30;;;;;;;3.38;2.85;;;20.60;62.60;;;;;;5082292;28;20836;-53
2022/06/13 07:21:56;;;;;;;3.05;2.72;;;20.60;62.60;;;;;;5083815;28;20032;-50
2022/06/13 07:24:23;;;;;;;2.88;2.67;;;20.60;63.50;;;;;;5066159;28;20072;-53
2022/06/13 07:26:49;;;;;;;3.60;3.25;;;20.60;63.00;;;;;;5074745;28;20024;-51
2022/06/13 07:29:18;;;;;;;2.70;2.50;;;20.60;62.70;;;;;;5083865;28;20066;-49
2022/06/13 07:32:03;;;;;;;2.80;2.60;;;20.60;62.90;;;;;;5091964;28;20035;-52
2022/06/13 07:34:30;;;;;;;4.75;2.60;;;20.70;62.80;;;;;;5064189;28;20059;-53
2022/06/13 07:36:58;;;;;;;2.65;2.45;;;20.70;62.80;;;;;;5066807;28;20028;-51
2022/06/13 07:39:24;;;;;;;2.75;2.55;;;20.70;62.90;;;;;;5083604;28;20033;-52
2022/06/13 07:41:50;;;;;;;2.88;2.67;;;20.70;63.00;;;;;;5085626;28;20028;-50
2022/06/13 07:44:25;;;;;;;2.50;2.30;;;20.70;63.10;;;;;;5075031;28;20043;-51
2022/06/13 07:46:51;;;;;;;3.08;2.88;;;20.80;63.30;;;;;;5085632;28;20034;-53
2022/06/13 07:49:18;;;;;;;3.10;2.88;;;20.80;63.20;;;;;;5053546;28;20025;-51
2022/06/13 07:51:45;;;;;;;3.40;3.10;;;20.80;63.30;;;;;;5074368;28;20024;-49
2022/06/13 07:54:11;;;;;;;3.42;3.13;;;20.80;63.30;;;;;;5090588;28;20709;-53
2022/06/13 07:56:38;;;;;;;3.00;2.80;;;20.80;63.40;;;;;;5087364;28;20088;-51
2022/06/13 07:59:04;;;;;;;2.88;2.67;;;20.90;63.70;;;;;;5061545;28;20032;-51
2022/06/13 08:01:31;;;;;;;3.13;2.88;;;20.90;63.60;;;;;;5072905;28;20036;-50
2022/06/13 08:03:57;;;;;;;3.08;2.80;;;20.90;63.70;;;;;;5083254;28;20032;-50
2022/06/13 08:06:23;;;;;;;3.35;3.05;;;20.90;63.70;;;;;;5070870;28;20032;-53
2022/06/13 08:08:50;;;;;;;3.00;2.80;;;20.90;63.70;;;;;;5050734;28;20424;-53
2022/06/13 08:11:24;;;;;;;2.97;2.78;;;20.90;63.80;;;;;;5097455;28;20054;-52
2022/06/13 08:13:50;;;;;;;3.30;3.00;;;21.00;63.90;;;;;;5058700;28;20048;-50
2022/06/13 08:16:16;;;;;;;3.10;2.88;;;21.00;63.90;;;;;;5085428;28;20024;-49
2022/06/13 08:18:42;;;;;;;3.53;3.22;;;21.00;63.80;;;;;;5089285;28;20032;-50
2022/06/13 08:21:09;;;;;;;3.25;2.95;;;21.00;64.00;;;;;;5078251;28;20024;-47
2022/06/13 08:23:35;;;;;;;4.95;2.75;;;21.00;63.90;;;;;;5095016;28;20063;-47
2022/06/13 08:26:01;;;;;;;3.38;3.08;;;21.10;63.80;;;;;;5102030;28;20112;-51
2022/06/13 08:28:28;;;;;;;4.97;3.20;;;21.10;63.90;;;;;;5092334;28;20132;-49
2022/06/13 08:31:01;;;;;;;3.17;2.88;;;21.10;63.90;;;;;;5081531;28;20028;-49
2022/06/13 08:33:27;;;;;;;3.30;3.00;;;21.10;63.80;;;;;;5052215;28;20055;-47
2022/06/13 08:35:53;;;;;;;3.40;3.10;;;21.10;63.80;;;;;;5101430;28;20036;-52
2022/06/13 08:38:19;;;;;;;2.92;2.72;;;21.10;63.80;;;;;;5076610;28;20032;-52
2022/06/13 08:41:07;;;;;;;2.92;2.72;;;21.20;63.80;;;;;;5088404;28;20028;-51
2022/06/13 08:43:51;;;;;;;3.13;2.92;;;21.20;63.80;;;;;;5076828;28;20039;-54
2022/06/13 08:46:45;;;;;;;3.47;3.17;;;21.20;63.70;;;;;;5088872;28;20013;-42
2022/06/13 08:49:23;;;;;;;2.85;2.65;;;21.20;63.60;;;;;;5065915;28;20025;-48
2022/06/13 08:51:56;;;;;;;3.20;2.90;;;21.20;63.60;;;;;;5063638;28;20119;-49
2022/06/13 08:54:27;;;;;;;3.05;2.78;;;21.30;63.70;;;;;;5084997;28;20032;-49
2022/06/13 08:56:53;;;;;;;2.85;2.65;;;21.30;63.60;;;;;;5069214;28;20024;-50
2022/06/13 08:59:34;;;;;;;3.40;3.10;;;21.30;63.60;;;;;;5082799;28;20036;-51
2022/06/13 09:02:03;;;;;;;3.58;3.28;;;21.30;63.50;;;;;;5061272;28;20028;-49
2022/06/13 09:04:35;;;;;;;3.10;2.80;;;21.30;63.40;;;;;;5079528;28;20111;-50
2022/06/13 09:07:28;;;;;;;3.28;2.97;;;21.40;63.40;;;;;;5047644;28;20025;-54
2022/06/13 09:10:09;;;;;;;3.20;2.90;;;21.40;63.50;;;;;;5078006;28;20033;-47
2022/06/13 09:12:47;;;;;;;3.10;2.80;;;21.40;63.30;;;;;;5074529;28;20039;-49
2022/06/13 09:15:16;;;;;;;3.30;2.80;;;21.40;63.30;;;;;;5045384;28;20032;-49
2022/06/13 09:18:03;;;;;;;3.20;2.90;;;21.40;63.30;;;;;;5068855;28;20021;-51
2022/06/13 09:20:35;;;;;;;3.30;3.00;;;21.40;63.20;;;;;;5065282;28;20039;-49
2022/06/13 09:23:22;;;;;;;3.22;2.95;;;21.40;63.20;;;;;;5061760;28;20037;-50
2022/06/13 09:25:48;;;;;;;2.95;2.75;;;21.50;63.90;;;;;;5044717;28;20059;-49
2022/06/13 09:28:14;;;;;;;2.88;2.67;;;21.50;63.30;;;;;;5061843;28;20067;-48
2022/06/13 09:30:53;;;;;;;3.10;2.90;;;21.50;63.20;;;;;;5066472;28;20025;-52
2022/06/13 09:33:29;;;;;;;2.72;2.53;;;21.50;63.20;;;;;;5066854;28;20043;-49
2022/06/13 09:35:57;;;;;;;3.10;2.80;;;21.60;63.20;;;;;;5034139;28;20059;-51
2022/06/13 09:38:26;;;;;;;3.17;2.97;;;21.50;62.60;;;;;;5062341;28;20783;-48
2022/06/13 09:41:04;;;;;;;2.65;2.45;;;21.50;62.00;;;;;;5069656;28;20088;-49
2022/06/13 09:43:40;;;;;;;;;;;21.50;62.00;;;;;;5085980;28;20043;-49
2022/06/13 09:46:20;;;;;;;2.60;2.40;;;21.50;62.00;;;;;;5085749;28;19918;-49
2022/06/13 09:49:08;;;;;;;2.88;2.58;;;21.50;61.90;;;;;;5069251;28;20059;-49
2022/06/13 09:52:02;;;;;;;2.97;2.78;;;21.50;61.90;;;;;;5066563;28;20060;-48
2022/06/13 09:54:47;;;;;;;3.45;3.15;;;21.60;61.90;;;;;;5025923;28;20052;-47
2022/06/13 09:57:31;;;;;;;4.00;2.85;;;21.60;61.90;;;;;;5049663;28;20043;-47
2022/06/13 10:00:03;;;;;;;3.00;2.80;;;21.60;61.90;;;;;;5075979;28;20021;-49
2022/06/13 10:02:38;;;;;;;3.10;2.75;;;21.50;61.90;;;;;;5047978;28;20033;-50
2022/06/13 10:05:07;;;;;;;2.97;2.72;;;21.60;61.90;;;;;;5074601;28;20025;-48
2022/06/13 10:07:55;;;;;;;3.30;3.00;;;21.60;62.00;;;;;;5085201;28;20032;-50
2022/06/13 10:10:32;;;;;;;3.17;2.90;;;21.60;61.90;;;;;;5067663;28;20050;-47
2022/06/13 10:13:21;;;;;;;3.05;2.75;;;21.60;62.00;;;;;;5061319;28;20661;-49
2022/06/13 10:16:08;;;;;;;;;;;21.60;62.00;;;;;;5059658;28;20047;-49
2022/06/13 10:18:49;;;;;;;3.30;3.00;;;21.60;62.00;;;;;;5085067;28;19916;-50
2022/06/13 10:21:44;;;;;;;3.00;2.80;;;21.60;62.00;;;;;;5059482;28;20113;-50
2022/06/13 10:24:50;;;;;;;2.90;2.70;;;21.60;62.00;;;;;;5067100;28;20842;-49
2022/06/13 10:27:50;;;;;;;2.78;2.58;;;21.60;62.00;;;;;;5065159;28;20022;-48
2022/06/13 10:31:06;;;;;;;3.13;2.80;;;21.70;62.20;;;;;;5048211;28;20029;-49
2022/06/13 10:33:46;;;;;;;2.92;2.72;;;21.70;62.10;;;;;;5058931;28;20063;-50
2022/06/13 10:36:24;;;;;;;2.85;2.65;;;21.70;62.20;;;;;;5084851;28;20535;-49
2022/06/13 10:38:58;;;;;;;3.28;2.97;;;21.70;62.20;;;;;;5065305;28;20039;-48
2022/06/13 10:41:25;;;;;;;2.55;2.35;;;21.70;62.20;;;;;;5048779;28;20067;-47
2022/06/13 10:43:51;;;;;;;;;;;21.70;62.20;;;;;;5067531;28;20394;-48
2022/06/13 10:46:17;;;;;;;2.90;2.67;;;21.70;62.20;;;;;;5066360;28;19908;-49
2022/06/13 10:48:46;;;;;;;2.85;2.65;;;21.70;62.20;;;;;;5084562;28;20405;-49
2022/06/13 10:51:12;;;;;;;3.25;2.95;;;21.70;62.20;;;;;;5083901;28;20041;-48
2022/06/13 10:54:08;;;;;;;3.22;2.40;;;21.70;62.10;;;;;;5084728;28;20482;-48
2022/06/13 10:56:53;;;;;;;2.92;2.67;;;21.70;62.20;;;;;;5080638;28;20080;-48
2022/06/13 10:59:30;;;;;;;3.30;3.00;;;21.80;62.20;;;;;;5077442;28;20053;-48
2022/06/13 11:02:02;;;;;;;2.80;2.60;;;21.70;62.10;;;;;;5084578;28;20082;-48
2022/06/13 11:04:35;;;;;;;2.88;2.67;;;21.80;62.20;;;;;;5095596;28;20261;-48
2022/06/13 11:07:14;;;;;;;2.70;2.50;;;21.80;62.20;;;;;;5084402;28;20036;-49
2022/06/13 11:09:46;;;;;;;3.00;2.70;;;21.80;62.10;;;;;;5083565;28;20131;-49
2022/06/13 11:12:34;;;;;;;2.83;2.63;;;21.80;62.90;;;;;;5087428;28;20024;-47
2022/06/13 11:23:47;;;;;;;2.70;2.50;;;21.80;62.20;;;;;;5062859;28;20464;-47
2022/06/13 11:29:15;;;;;;;3.10;2.80;;;21.80;62.20;;;;;;5025319;28;20025;-47
2022/06/13 11:31:49;;;;;;;3.08;2.50;;;21.80;62.30;;;;;;5030903;28;20042;-49
2022/06/13 11:34:30;;;;;;;2.40;2.20;;;21.90;62.40;;;;;;5020472;28;20145;-48
2022/06/13 11:37:05;;;;;;;2.80;2.60;;;21.90;62.30;;;;;;5021083;28;20495;-48
2022/06/13 11:39:36;;;;;;;3.30;2.38;;;21.90;62.30;;;;;;5020820;28;20089;-48
2022/06/13 11:42:03;;;;;;;2.78;2.58;;;21.90;62.30;;;;;;5022172;28;20061;-47
2022/06/13 11:44:29;;;;;;;2.80;2.60;;;21.90;62.30;;;;;;5003242;28;20057;-47
2022/06/13 11:47:02;;;;;;;2.63;2.42;;;21.90;62.30;;;;;;5010733;28;20022;-49
2022/06/13 11:49:39;;;;;;;2.90;2.70;;;21.90;62.40;;;;;;5001327;28;20042;-50
2022/06/13 11:52:11;;;;;;;2.47;2.28;;;21.90;62.30;;;;;;5002625;28;20916;-50
2022/06/13 11:54:41;;;;;;;2.80;2.60;;;21.90;62.40;;;;;;5016580;28;20069;-54
2022/06/13 11:57:35;;;;;;;2.75;2.55;;;21.90;62.40;;;;;;5004816;28;20057;-50
2022/06/13 12:00:16;;;;;;;2.90;2.70;;;21.90;62.40;;;;;;5005017;28;20041;-48
2022/06/13 12:02:45;;;;;;;2.67;2.47;;;22.00;62.50;;;;;;5034806;28;20032;-51
2022/06/13 12:05:22;;;;;;;2.88;2.67;;;21.90;62.40;;;;;;5083285;28;20103;-50
2022/06/13 12:07:54;;;;;;;2.50;2.30;;;21.90;62.40;;;;;;5082938;28;20123;-52
2022/06/13 12:10:23;;;;;;;2.90;2.70;;;21.90;62.40;;;;;;5062964;28;20025;-50
2022/06/13 12:12:49;;;;;;;3.00;2.80;;;22.00;62.50;;;;;;5076453;28;20506;-48
2022/06/13 12:15:15;;;;;;;2.70;2.50;;;22.00;62.40;;;;;;5083229;28;20035;-54
2022/06/13 12:18:17;;;;;;;2.92;2.70;;;22.00;62.50;;;;;;5019837;28;20042;-52
2022/06/13 12:21:00;;;;;;;2.78;2.58;;;22.00;62.50;;;;;;5019522;28;20061;-49
2022/06/13 12:23:59;;;;;;;2.88;2.67;;;22.00;62.50;;;;;;5020519;28;20054;-51
2022/06/13 12:26:35;;;;;;;2.63;2.42;;;22.00;62.70;;;;;;5000940;28;20054;-50
2022/06/13 12:29:30;;;;;;;3.28;2.97;;;22.00;62.70;;;;;;4969680;28;20705;-50
2022/06/13 12:32:06;;;;;;;2.80;2.60;;;22.10;62.80;;;;;;5010136;28;20046;-50
2022/06/13 12:34:54;;;;;;;2.63;2.42;;;22.10;62.90;;;;;;4987031;28;20038;-50
2022/06/13 12:37:42;;;;;;;2.45;2.25;;;22.10;63.00;;;;;;5019334;28;20030;-50
2022/06/13 12:40:19;;;;;;;2.80;2.60;;;22.10;63.10;;;;;;5006925;28;20038;-49
2022/06/13 12:43:13;;;;;;;3.35;2.95;;;22.10;63.10;;;;;;4991802;28;20049;-52
2022/06/13 12:46:02;;;;;;;2.42;2.22;;;22.10;63.20;;;;;;5000329;28;20034;-50
2022/06/13 12:48:46;;;;;;;2.63;2.42;;;22.10;63.20;;;;;;5016318;28;20058;-51
2022/06/13 12:51:21;;;;;;;2.55;2.35;;;22.10;63.40;;;;;;5019834;28;20037;-49
2022/06/13 12:54:08;;;;;;;3.05;2.13;;;22.10;63.40;;;;;;5002670;28;20045;-50
2022/06/13 12:56:53;;;;;;;2.70;2.50;;;22.20;63.70;;;;;;5081592;28;20055;-47
2022/06/13 12:59:31;;;;;;;2.83;2.63;;;22.20;63.80;;;;;;5082278;28;20020;-52
2022/06/13 13:02:37;;;;;;;2.60;2.40;;;22.20;63.90;;;;;;5063510;28;20035;-48
2022/06/13 13:05:41;;;;;;;2.78;2.58;;;22.20;64.10;;;;;;5076230;28;20036;-48
2022/06/13 13:08:20;;;;;;;3.10;2.90;;;22.20;63.80;;;;;;5030430;28;20037;-48
2022/06/13 13:11:21;;;;;;;2.92;2.63;;;22.20;63.60;;;;;;5070456;28;20542;-47
2022/06/13 13:13:52;;;;;;;3.20;2.90;;;22.20;63.00;;;;;;5078706;28;20792;-47
2022/06/13 13:16:27;;;;;;;3.15;2.85;;;22.20;63.10;;;;;;5064618;28;20032;-51
2022/06/13 13:19:20;;;;;;;3.40;3.13;;;22.20;63.20;;;;;;5081990;28;20033;-47
2022/06/13 13:21:57;;;;;;;3.08;2.85;;;22.30;63.40;;;;;;5082144;28;20059;-47
2022/06/13 13:24:26;;;;;;;4.13;3.25;;;22.30;63.50;;;;;;5080614;28;20137;-48
2022/06/13 13:27:19;;;;;;;3.85;3.50;;;22.30;63.60;;;;;;5081636;28;20029;-47
2022/06/13 13:30:27;;;;;;;3.90;3.60;;;22.30;63.60;;;;;;5079218;28;20083;-49
2022/06/13 13:33:12;;;;;;;4.15;3.85;;;22.30;63.80;;;;;;5028627;28;20087;-49
2022/06/13 13:36:04;;;;;;;3.78;3.47;;;22.30;63.50;;;;;;5079998;28;20021;-50
2022/06/13 13:38:30;;;;;;;3.60;3.30;;;22.30;63.50;;;;;;5079356;28;20017;-47
2022/06/13 13:41:10;;;;;;;3.92;3.60;;;22.30;63.60;;;;;;5092218;28;20035;-46
2022/06/13 13:43:56;;;;;;;4.07;3.72;;;22.40;63.70;;;;;;5081017;28;20029;-48
2022/06/13 13:46:25;;;;;;;4.43;4.03;;;22.40;63.50;;;;;;5095216;28;20088;-48
2022/06/13 13:48:59;;;;;;;5.50;5.00;;;22.40;64.20;;;;;;5080474;28;20046;-48
2022/06/13 13:51:54;;;;;;;4.85;4.45;;;22.40;64.60;;;;;;5043590;28;20037;-49